Terminal Aerodrome Forecast
Issued by NWS

Home | Current Version | Previous Version | Text Only | Print | Product List | Glossary On
Versions: 1 2 3 4 5 6 7 8 9 10 11 12 13 14
000
FTUS45 KABQ 292320
TAFTCC
TAF
KTCC 292320Z 3000/3024 08011KT P6SM VCTS SCT070CB BKN120
      TEMPO 3000/3001 VRB30G45KT 5SM TSRA BKN050CB
     FM300400 05011KT P6SM -SHRA BKN040
     FM301000 01010KT P6SM VCSH BKN025
     FM301600 05008KT P6SM SCT035 BKN050
     FM302000 16008KT P6SM SCT050=

USA.gov is the U.S. government's official web portal to all federal, state and local government web resources and services.